PWSweather.com
Personal Weather Stations
Station Observations
REUBENS
Camas Prairie, Reubens, ID 83548

Camas PrairieReubens, ID 83548

Lat: 46.35417, Lon: -116.53167

Elevation: 3480

Station Type: Davis VantagePro 2

http://www.theobrienranch.com/wx/wx.htm

Latest ConditionsUpdated 11:45:01 AM PST Sunday, Nov 19, 2017
Currently Today's Max Today's Min Today's Average
Temperature 40.2°F4.6°C 40.2°F4.6°C 27.8°F-2.3°C 33.8°F1.0°C
Dew Point 28.6°F-1.9°C 29.7°F-1.3°C 21.2°F-6.0°C 24.1°F-4.4°C
Winds 3.5 mph S5.6 kmh S 4.6 mph S7.4 kmh S - 2.1 mph 3.4 kmh
Wind Gusts 3.5 mph5.6 kmh 6.9 mph11.1 kmh - -
Humidity 63% 79% 58% 68%
Pressure 30.14 in1020.7 mb 30.34 in1027.4 mb 30.14 in1020.7 mb -
Hour Temp Dew Point Humidity Winds Wind Gusts Pressure Precip Precip Rate Daily Precip Total
11:45 AM 40.2°F4.6°C 28.6°F-1.9°C 63% 3.5 mph S5.6 kmh S 3.5 mph5.6 kmh 30.14 in1020.7 mb - 0.00 in0.0 mm 0.00 in0.0 mm
11:30 AM 40.2°F4.6°C 29.7°F-1.3°C 66% 3.5 mph SSE5.6 kmh SSE 4.6 mph7.4 kmh 30.15 in1021.0 mb - 0.00 in0.0 mm 0.00 in0.0 mm
11:15 AM 39.6°F4.2°C 28.0°F-2.2°C 63% 3.5 mph SE5.6 kmh SE 6.9 mph11.1 kmh 30.17 in1021.7 mb - 0.00 in0.0 mm 0.00 in0.0 mm
11:00 AM 38.1°F3.4°C 29.5°F-1.4°C 71% 3.5 mph SE5.6 kmh SE 5.8 mph9.3 kmh 30.18 in1022.0 mb - 0.00 in0.0 mm 0.00 in0.0 mm
10:45 AM 38.6°F3.7°C 29.3°F-1.5°C 69% 4.6 mph SE7.4 kmh SE 4.6 mph7.4 kmh 30.18 in1022.0 mb - 0.00 in0.0 mm 0.00 in0.0 mm
10:30 AM 38.2°F3.4°C 27.8°F-2.3°C 66% 3.5 mph SE5.6 kmh SE 3.5 mph5.6 kmh 30.19 in1022.4 mb - 0.00 in0.0 mm 0.00 in0.0 mm
10:15 AM 35.8°F2.1°C 28.3°F-2.1°C 74% 3.5 mph SE5.6 kmh SE 3.5 mph5.6 kmh 30.22 in1023.4 mb - 0.00 in0.0 mm 0.00 in0.0 mm
10:00 AM 36.0°F2.2°C 27.8°F-2.3°C 72% 4.6 mph SE7.4 kmh SE 5.8 mph9.3 kmh 30.21 in1023.0 mb - 0.00 in0.0 mm 0.00 in0.0 mm
09:45 AM 36.9°F2.7°C 27.7°F-2.4°C 69% 3.5 mph SE5.6 kmh SE 3.5 mph5.6 kmh 30.21 in1023.0 mb - 0.00 in0.0 mm 0.00 in0.0 mm
09:30 AM 35.8°F2.1°C 27.0°F-2.8°C 70% 4.6 mph SE7.4 kmh SE 3.5 mph5.6 kmh 30.22 in1023.4 mb - 0.00 in0.0 mm 0.00 in0.0 mm
09:15 AM 35.6°F2.0°C 26.8°F-2.9°C 70% 3.5 mph SSE5.6 kmh SSE 4.6 mph7.4 kmh 30.24 in1024.0 mb - 0.00 in0.0 mm 0.00 in0.0 mm
09:00 AM 36.0°F2.2°C 26.8°F-2.9°C 69% Calm Calm -- 30.24 in1024.0 mb - 0.00 in0.0 mm 0.00 in0.0 mm
08:45 AM 35.6°F2.0°C 27.1°F-2.7°C 71% 2.3 mph SSE3.7 kmh SSE 3.5 mph5.6 kmh 30.24 in1024.0 mb - 0.00 in0.0 mm 0.00 in0.0 mm
08:30 AM 34.9°F1.6°C 25.4°F-3.7°C 68% 3.5 mph SSE5.6 kmh SSE 3.5 mph5.6 kmh 30.25 in1024.4 mb - 0.00 in0.0 mm 0.00 in0.0 mm
08:15 AM 33.9°F1.1°C 25.8°F-3.4°C 72% Calm Calm -- 30.26 in1024.7 mb - 0.00 in0.0 mm 0.00 in0.0 mm
08:00 AM 31.3°F-0.4°C 24.3°F-4.3°C 75% Calm Calm -- 30.28 in1025.4 mb - 0.00 in0.0 mm 0.00 in0.0 mm
07:45 AM 29.6°F-1.3°C 23.3°F-4.8°C 77% 2.3 mph SSE3.7 kmh SSE 3.5 mph5.6 kmh 30.28 in1025.4 mb - 0.00 in0.0 mm 0.00 in0.0 mm
07:30 AM 29.9°F-1.2°C 22.0°F-5.6°C 72% Calm Calm -- 30.27 in1025.1 mb - 0.00 in0.0 mm 0.00 in0.0 mm
07:15 AM 29.8°F-1.2°C 21.8°F-5.7°C 72% Calm Calm -- 30.28 in1025.4 mb - 0.00 in0.0 mm 0.00 in0.0 mm
07:00 AM 28.6°F-1.9°C 21.7°F-5.7°C 75% Calm Calm -- 30.27 in1025.1 mb - 0.00 in0.0 mm 0.00 in0.0 mm
06:45 AM 28.5°F-1.9°C 22.2°F-5.4°C 77% 2.3 mph SSE3.7 kmh SSE 3.5 mph5.6 kmh 30.26 in1024.7 mb - 0.00 in0.0 mm 0.00 in0.0 mm
06:30 AM 27.8°F-2.3°C 22.1°F-5.5°C 79% 2.3 mph SSE3.7 kmh SSE 3.5 mph5.6 kmh 30.27 in1025.1 mb - 0.00 in0.0 mm 0.00 in0.0 mm
06:15 AM 29.5°F-1.4°C 21.9°F-5.6°C 73% 3.5 mph SSE5.6 kmh SSE 3.5 mph5.6 kmh 30.26 in1024.7 mb - 0.00 in0.0 mm 0.00 in0.0 mm
06:00 AM 33.4°F0.8°C 22.1°F-5.5°C 63% 4.6 mph S7.4 kmh S 4.6 mph7.4 kmh 30.26 in1024.7 mb - 0.00 in0.0 mm 0.00 in0.0 mm
05:45 AM 33.2°F0.7°C 21.6°F-5.8°C 62% 2.3 mph S3.7 kmh S 3.5 mph5.6 kmh 30.27 in1025.1 mb - 0.00 in0.0 mm 0.00 in0.0 mm
05:30 AM 33.3°F0.7°C 22.4°F-5.3°C 64% Calm Calm -- 30.28 in1025.4 mb - 0.00 in0.0 mm 0.00 in0.0 mm
05:15 AM 34.4°F1.3°C 21.9°F-5.6°C 60% Calm Calm -- 30.27 in1025.1 mb - 0.00 in0.0 mm 0.00 in0.0 mm
05:00 AM 32.6°F0.3°C 22.8°F-5.1°C 67% 4.6 mph S7.4 kmh S 4.6 mph7.4 kmh 30.27 in1025.1 mb - 0.00 in0.0 mm 0.00 in0.0 mm
04:45 AM 33.2°F0.7°C 22.7°F-5.2°C 65% Calm Calm -- 30.28 in1025.4 mb - 0.00 in0.0 mm 0.00 in0.0 mm
04:30 AM 33.9°F1.1°C 21.9°F-5.6°C 61% 3.5 mph S5.6 kmh S 3.5 mph5.6 kmh 30.28 in1025.4 mb - 0.00 in0.0 mm 0.00 in0.0 mm
04:15 AM 32.8°F0.4°C 21.2°F-6.0°C 62% 1.2 mph S1.9 kmh S 3.5 mph5.6 kmh 30.29 in1025.7 mb - 0.00 in0.0 mm 0.00 in0.0 mm
04:00 AM 31.3°F-0.4°C 21.9°F-5.6°C 68% Calm Calm -- 30.29 in1025.7 mb - 0.00 in0.0 mm 0.00 in0.0 mm
03:45 AM 32.6°F0.3°C 21.4°F-5.9°C 63% Calm Calm -- 30.28 in1025.4 mb - 0.00 in0.0 mm 0.00 in0.0 mm
03:30 AM 33.5°F0.8°C 22.2°F-5.4°C 63% Calm Calm -- 30.27 in1025.1 mb - 0.00 in0.0 mm 0.00 in0.0 mm
03:15 AM 35.0°F1.7°C 21.7°F-5.7°C 58% Calm Calm -- 30.27 in1025.1 mb - 0.00 in0.0 mm 0.00 in0.0 mm
03:00 AM 35.3°F1.8°C 22.0°F-5.6°C 58% Calm Calm -- 30.27 in1025.1 mb - 0.00 in0.0 mm 0.00 in0.0 mm
02:45 AM 35.3°F1.8°C 22.0°F-5.6°C 58% 1.2 mph S1.9 kmh S 2.3 mph3.7 kmh 30.27 in1025.1 mb - 0.00 in0.0 mm 0.00 in0.0 mm
02:30 AM 34.9°F1.6°C 22.4°F-5.3°C 60% 2.3 mph S3.7 kmh S 3.5 mph5.6 kmh 30.28 in1025.4 mb - 0.00 in0.0 mm 0.00 in0.0 mm
02:15 AM 34.4°F1.3°C 22.0°F-5.6°C 60% 3.5 mph S5.6 kmh S 3.5 mph5.6 kmh 30.29 in1025.7 mb - 0.00 in0.0 mm 0.00 in0.0 mm
02:00 AM 33.5°F0.8°C 22.6°F-5.2°C 64% 2.3 mph S3.7 kmh S 3.5 mph5.6 kmh 30.30 in1026.1 mb - 0.00 in0.0 mm 0.00 in0.0 mm
01:45 AM 32.8°F0.4°C 22.7°F-5.2°C 66% Calm Calm -- 30.30 in1026.1 mb - 0.00 in0.0 mm 0.00 in0.0 mm
01:30 AM 32.7°F0.4°C 23.0°F-5.0°C 67% 2.3 mph S3.7 kmh S 3.5 mph5.6 kmh 30.30 in1026.1 mb - 0.00 in0.0 mm 0.00 in0.0 mm
01:15 AM 33.4°F0.8°C 22.9°F-5.1°C 65% 3.5 mph S5.6 kmh S 3.5 mph5.6 kmh 30.30 in1026.1 mb - 0.00 in0.0 mm 0.00 in0.0 mm
01:00 AM 31.6°F-0.2°C 23.3°F-4.8°C 71% 2.3 mph S3.7 kmh S 3.5 mph5.6 kmh 30.32 in1026.8 mb - 0.00 in0.0 mm 0.00 in0.0 mm
12:45 AM 31.8°F-0.1°C 23.8°F-4.6°C 72% 4.6 mph S7.4 kmh S 3.5 mph5.6 kmh 30.32 in1026.8 mb - 0.00 in0.0 mm 0.00 in0.0 mm
12:30 AM 32.3°F0.2°C 24.0°F-4.4°C 71% 4.6 mph S7.4 kmh S 4.6 mph7.4 kmh 30.33 in1027.1 mb - 0.00 in0.0 mm 0.00 in0.0 mm
12:15 AM 32.6°F0.3°C 24.9°F-3.9°C 73% 2.3 mph S3.7 kmh S 3.5 mph5.6 kmh 30.33 in1027.1 mb - 0.00 in0.0 mm 0.00 in0.0 mm
12:00 AM 33.6°F0.9°C 23.4°F-4.8°C 66% Calm Calm -- 30.34 in1027.4 mb - 0.00 in0.0 mm 0.00 in0.0 mm